sensor_id;sensor_type;location;lat;lon;timestamp;temperature;humidity
23597;DHT22;40226;50.874;4.394;2023-04-25T00:01:50;10.20;28.80
23597;DHT22;40226;50.874;4.394;2023-04-25T00:04:16;10.50;14.10
23597;DHT22;40226;50.874;4.394;2023-04-25T00:06:42;10.40;8.10
23597;DHT22;40226;50.874;4.394;2023-04-25T00:09:07;10.40;20.10
23597;DHT22;40226;50.874;4.394;2023-04-25T00:11:35;10.30;27.00
23597;DHT22;40226;50.874;4.394;2023-04-25T00:14:01;10.10;36.70
23597;DHT22;40226;50.874;4.394;2023-04-25T00:16:28;10.30;36.00
23597;DHT22;40226;50.874;4.394;2023-04-25T00:18:54;10.40;22.40
23597;DHT22;40226;50.874;4.394;2023-04-25T00:21:20;10.20;37.00
23597;DHT22;40226;50.874;4.394;2023-04-25T00:23:47;10.10;44.80
23597;DHT22;40226;50.874;4.394;2023-04-25T00:26:12;10.00;46.80
23597;DHT22;40226;50.874;4.394;2023-04-25T00:28:39;10.10;52.10
23597;DHT22;40226;50.874;4.394;2023-04-25T00:31:06;10.50;25.30
23597;DHT22;40226;50.874;4.394;2023-04-25T00:33:32;10.50;19.00
23597;DHT22;40226;50.874;4.394;2023-04-25T00:35:57;10.40;26.40
23597;DHT22;40226;50.874;4.394;2023-04-25T00:38:23;10.40;30.00
23597;DHT22;40226;50.874;4.394;2023-04-25T00:40:49;10.50;20.60
23597;DHT22;40226;50.874;4.394;2023-04-25T00:43:15;10.60;19.40
23597;DHT22;40226;50.874;4.394;2023-04-25T00:45:43;10.50;21.90
23597;DHT22;40226;50.874;4.394;2023-04-25T00:48:08;10.40;28.20
23597;DHT22;40226;50.874;4.394;2023-04-25T00:50:35;10.50;26.30
23597;DHT22;40226;50.874;4.394;2023-04-25T00:53:01;10.50;29.90
23597;DHT22;40226;50.874;4.394;2023-04-25T00:55:27;10.40;40.50
23597;DHT22;40226;50.874;4.394;2023-04-25T00:57:53;10.30;58.20
23597;DHT22;40226;50.874;4.394;2023-04-25T01:00:19;10.50;45.50
23597;DHT22;40226;50.874;4.394;2023-04-25T01:02:46;10.50;54.30
23597;DHT22;40226;50.874;4.394;2023-04-25T01:05:12;10.30;79.30
23597;DHT22;40226;50.874;4.394;2023-04-25T01:07:38;10.20;93.70
23597;DHT22;40226;50.874;4.394;2023-04-25T01:10:05;10.30;85.40
23597;DHT22;40226;50.874;4.394;2023-04-25T01:12:31;10.30;90.70
23597;DHT22;40226;50.874;4.394;2023-04-25T01:14:57;10.20;82.50
23597;DHT22;40226;50.874;4.394;2023-04-25T01:17:23;10.20;93.30
23597;DHT22;40226;50.874;4.394;2023-04-25T01:19:49;10.30;90.50
23597;DHT22;40226;50.874;4.394;2023-04-25T01:22:16;10.10;95.50
23597;DHT22;40226;50.874;4.394;2023-04-25T01:24:42;10.30;96.60
23597;DHT22;40226;50.874;4.394;2023-04-25T01:27:08;10.20;93.50
23597;DHT22;40226;50.874;4.394;2023-04-25T01:29:35;10.40;81.60
23597;DHT22;40226;50.874;4.394;2023-04-25T01:32:01;10.40;79.20
23597;DHT22;40226;50.874;4.394;2023-04-25T01:34:27;10.40;88.50
23597;DHT22;40226;50.874;4.394;2023-04-25T01:36:53;10.30;85.60
23597;DHT22;40226;50.874;4.394;2023-04-25T01:39:20;10.10;92.70
23597;DHT22;40226;50.874;4.394;2023-04-25T01:41:46;10.20;92.30
23597;DHT22;40226;50.874;4.394;2023-04-25T01:44:13;10.30;77.10
23597;DHT22;40226;50.874;4.394;2023-04-25T01:46:39;10.40;78.20
23597;DHT22;40226;50.874;4.394;2023-04-25T01:49:05;10.30;92.20
23597;DHT22;40226;50.874;4.394;2023-04-25T01:51:30;10.30;94.20
23597;DHT22;40226;50.874;4.394;2023-04-25T01:53:57;10.10;95.70
23597;DHT22;40226;50.874;4.394;2023-04-25T01:56:23;9.90;99.90
23597;DHT22;40226;50.874;4.394;2023-04-25T01:58:49;9.90;99.90
23597;DHT22;40226;50.874;4.394;2023-04-25T02:01:15;9.90;99.90
23597;DHT22;40226;50.874;4.394;2023-04-25T02:03:40;9.80;99.90
23597;DHT22;40226;50.874;4.394;2023-04-25T02:06:06;9.60;99.90
23597;DHT22;40226;50.874;4.394;2023-04-25T02:08:32;9.60;99.90
23597;DHT22;40226;50.874;4.394;2023-04-25T02:10:58;9.50;99.90
23597;DHT22;40226;50.874;4.394;2023-04-25T02:13:23;9.50;99.90
23597;DHT22;40226;50.874;4.394;2023-04-25T02:15:49;9.40;99.90
23597;DHT22;40226;50.874;4.394;2023-04-25T02:18:15;9.50;99.90
23597;DHT22;40226;50.874;4.394;2023-04-25T02:20:43;9.30;99.90
23597;DHT22;40226;50.874;4.394;2023-04-25T02:23:09;9.10;99.90
23597;DHT22;40226;50.874;4.394;2023-04-25T02:25:35;9.10;99.90
23597;DHT22;40226;50.874;4.394;2023-04-25T02:28:00;9.20;99.90
23597;DHT22;40226;50.874;4.394;2023-04-25T02:30:26;9.10;99.90
23597;DHT22;40226;50.874;4.394;2023-04-25T02:32:52;9.10;99.90
23597;DHT22;40226;50.874;4.394;2023-04-25T02:35:17;9.10;99.90
23597;DHT22;40226;50.874;4.394;2023-04-25T02:37:43;9.20;99.90
23597;DHT22;40226;50.874;4.394;2023-04-25T02:40:09;9.40;99.90
23597;DHT22;40226;50.874;4.394;2023-04-25T02:42:35;9.30;99.90
23597;DHT22;40226;50.874;4.394;2023-04-25T02:45:02;9.40;99.90
23597;DHT22;40226;50.874;4.394;2023-04-25T02:47:27;9.60;99.90
23597;DHT22;40226;50.874;4.394;2023-04-25T02:49:53;9.60;99.90
23597;DHT22;40226;50.874;4.394;2023-04-25T02:52:19;9.60;99.90
23597;DHT22;40226;50.874;4.394;2023-04-25T02:54:45;9.50;99.90
23597;DHT22;40226;50.874;4.394;2023-04-25T02:57:11;9.70;99.90
23597;DHT22;40226;50.874;4.394;2023-04-25T02:59:36;9.80;99.90
23597;DHT22;40226;50.874;4.394;2023-04-25T03:02:02;9.60;99.90
23597;DHT22;40226;50.874;4.394;2023-04-25T03:04:28;9.60;99.90
23597;DHT22;40226;50.874;4.394;2023-04-25T03:06:54;9.60;99.90
23597;DHT22;40226;50.874;4.394;2023-04-25T03:09:19;9.70;99.90
23597;DHT22;40226;50.874;4.394;2023-04-25T03:11:45;9.60;99.90
23597;DHT22;40226;50.874;4.394;2023-04-25T03:14:12;9.60;99.90
23597;DHT22;40226;50.874;4.394;2023-04-25T03:16:37;9.70;99.90
23597;DHT22;40226;50.874;4.394;2023-04-25T03:19:03;9.60;99.90
23597;DHT22;40226;50.874;4.394;2023-04-25T03:21:30;9.70;99.90
23597;DHT22;40226;50.874;4.394;2023-04-25T03:23:57;9.50;99.90
23597;DHT22;40226;50.874;4.394;2023-04-25T03:26:23;9.50;99.90
23597;DHT22;40226;50.874;4.394;2023-04-25T03:28:48;9.50;99.90
23597;DHT22;40226;50.874;4.394;2023-04-25T03:31:14;9.30;99.90
23597;DHT22;40226;50.874;4.394;2023-04-25T03:33:40;9.50;99.90
23597;DHT22;40226;50.874;4.394;2023-04-25T03:36:06;9.40;99.90
23597;DHT22;40226;50.874;4.394;2023-04-25T03:38:31;9.30;99.90
23597;DHT22;40226;50.874;4.394;2023-04-25T03:40:57;9.30;99.90
23597;DHT22;40226;50.874;4.394;2023-04-25T03:43:23;9.00;99.90
23597;DHT22;40226;50.874;4.394;2023-04-25T03:45:48;9.00;99.90
23597;DHT22;40226;50.874;4.394;2023-04-25T03:48:14;8.90;99.90
23597;DHT22;40226;50.874;4.394;2023-04-25T03:50:40;8.90;99.90
23597;DHT22;40226;50.874;4.394;2023-04-25T03:53:05;8.90;99.90
23597;DHT22;40226;50.874;4.394;2023-04-25T03:55:31;8.90;99.90
23597;DHT22;40226;50.874;4.394;2023-04-25T03:57:58;8.90;99.90
23597;DHT22;40226;50.874;4.394;2023-04-25T04:00:24;8.90;99.90
23597;DHT22;40226;50.874;4.394;2023-04-25T04:02:50;8.90;99.90
23597;DHT22;40226;50.874;4.394;2023-04-25T04:05:16;8.80;99.90
23597;DHT22;40226;50.874;4.394;2023-04-25T04:07:42;8.80;99.90
23597;DHT22;40226;50.874;4.394;2023-04-25T04:10:09;8.80;99.90
23597;DHT22;40226;50.874;4.394;2023-04-25T04:12:35;8.90;99.90
23597;DHT22;40226;50.874;4.394;2023-04-25T04:15:02;8.80;99.90
23597;DHT22;40226;50.874;4.394;2023-04-25T04:17:29;8.90;99.90
23597;DHT22;40226;50.874;4.394;2023-04-25T04:19:55;9.20;99.90
23597;DHT22;40226;50.874;4.394;2023-04-25T04:22:20;8.90;99.90
23597;DHT22;40226;50.874;4.394;2023-04-25T04:24:46;8.70;99.90
23597;DHT22;40226;50.874;4.394;2023-04-25T04:27:12;8.70;99.90
23597;DHT22;40226;50.874;4.394;2023-04-25T04:29:38;8.90;99.90
23597;DHT22;40226;50.874;4.394;2023-04-25T04:32:04;8.80;99.90
23597;DHT22;40226;50.874;4.394;2023-04-25T04:34:30;8.70;99.90
23597;DHT22;40226;50.874;4.394;2023-04-25T04:36:56;8.70;99.90
23597;DHT22;40226;50.874;4.394;2023-04-25T04:39:22;8.70;99.90
23597;DHT22;40226;50.874;4.394;2023-04-25T04:41:48;8.60;99.90
23597;DHT22;40226;50.874;4.394;2023-04-25T04:44:14;8.60;99.90
23597;DHT22;40226;50.874;4.394;2023-04-25T04:46:40;8.60;99.90
23597;DHT22;40226;50.874;4.394;2023-04-25T04:49:09;8.70;99.90
23597;DHT22;40226;50.874;4.394;2023-04-25T04:51:35;8.60;99.90
23597;DHT22;40226;50.874;4.394;2023-04-25T04:54:00;8.80;99.90
23597;DHT22;40226;50.874;4.394;2023-04-25T04:56:28;9.10;99.90
23597;DHT22;40226;50.874;4.394;2023-04-25T04:58:57;9.20;99.90
23597;DHT22;40226;50.874;4.394;2023-04-25T05:01:22;9.20;93.90
23597;DHT22;40226;50.874;4.394;2023-04-25T05:03:48;9.10;93.70
23597;DHT22;40226;50.874;4.394;2023-04-25T05:06:16;9.00;98.00
23597;DHT22;40226;50.874;4.394;2023-04-25T05:08:42;8.90;98.90
23597;DHT22;40226;50.874;4.394;2023-04-25T05:11:07;8.80;99.90
23597;DHT22;40226;50.874;4.394;2023-04-25T05:13:33;8.80;99.90
23597;DHT22;40226;50.874;4.394;2023-04-25T05:15:59;8.80;99.90
23597;DHT22;40226;50.874;4.394;2023-04-25T05:18:24;8.60;99.90
23597;DHT22;40226;50.874;4.394;2023-04-25T05:20:50;8.60;99.90
23597;DHT22;40226;50.874;4.394;2023-04-25T05:23:16;8.70;99.90
23597;DHT22;40226;50.874;4.394;2023-04-25T05:25:41;8.60;99.90
23597;DHT22;40226;50.874;4.394;2023-04-25T05:28:07;8.60;99.90
23597;DHT22;40226;50.874;4.394;2023-04-25T05:30:34;8.50;99.90
23597;DHT22;40226;50.874;4.394;2023-04-25T05:33:00;8.30;99.90
23597;DHT22;40226;50.874;4.394;2023-04-25T05:35:26;8.40;99.90
23597;DHT22;40226;50.874;4.394;2023-04-25T05:37:51;8.70;99.90
23597;DHT22;40226;50.874;4.394;2023-04-25T05:40:17;8.60;99.90
23597;DHT22;40226;50.874;4.394;2023-04-25T05:42:42;8.60;99.90
23597;DHT22;40226;50.874;4.394;2023-04-25T05:45:08;8.80;99.90
23597;DHT22;40226;50.874;4.394;2023-04-25T05:47:35;8.70;99.90
23597;DHT22;40226;50.874;4.394;2023-04-25T05:50:00;8.80;98.30
23597;DHT22;40226;50.874;4.394;2023-04-25T05:52:26;8.70;95.80
23597;DHT22;40226;50.874;4.394;2023-04-25T05:54:52;8.60;99.50
23597;DHT22;40226;50.874;4.394;2023-04-25T05:57:22;8.70;99.90
23597;DHT22;40226;50.874;4.394;2023-04-25T05:59:48;8.80;99.90
23597;DHT22;40226;50.874;4.394;2023-04-25T06:02:14;9.20;97.10
23597;DHT22;40226;50.874;4.394;2023-04-25T06:04:39;9.20;89.70
23597;DHT22;40226;50.874;4.394;2023-04-25T06:07:05;9.20;93.40
23597;DHT22;40226;50.874;4.394;2023-04-25T06:09:31;9.20;95.00
23597;DHT22;40226;50.874;4.394;2023-04-25T06:11:56;9.20;99.30
23597;DHT22;40226;50.874;4.394;2023-04-25T06:14:22;9.30;99.90
23597;DHT22;40226;50.874;4.394;2023-04-25T06:16:47;9.60;97.50
23597;DHT22;40226;50.874;4.394;2023-04-25T06:19:13;9.70;93.30
23597;DHT22;40226;50.874;4.394;2023-04-25T06:21:39;9.80;90.20
23597;DHT22;40226;50.874;4.394;2023-04-25T06:24:04;9.90;81.70
23597;DHT22;40226;50.874;4.394;2023-04-25T06:26:30;9.60;85.40
23597;DHT22;40226;50.874;4.394;2023-04-25T06:28:56;9.60;87.20
23597;DHT22;40226;50.874;4.394;2023-04-25T06:31:21;9.60;84.10
23597;DHT22;40226;50.874;4.394;2023-04-25T06:33:47;9.70;74.30
23597;DHT22;40226;50.874;4.394;2023-04-25T06:36:13;9.90;65.60
23597;DHT22;40226;50.874;4.394;2023-04-25T06:38:39;10.10;23.40
23597;DHT22;40226;50.874;4.394;2023-04-25T06:41:05;10.20;3.00
23597;DHT22;40226;50.874;4.394;2023-04-25T06:43:31;10.20;1.00
23597;DHT22;40226;50.874;4.394;2023-04-25T06:45:59;10.30;1.00
23597;DHT22;40226;50.874;4.394;2023-04-25T06:48:26;10.40;1.00
23597;DHT22;40226;50.874;4.394;2023-04-25T06:50:52;10.20;1.00
23597;DHT22;40226;50.874;4.394;2023-04-25T06:53:18;10.30;1.00
23597;DHT22;40226;50.874;4.394;2023-04-25T06:55:44;10.20;1.00
23597;DHT22;40226;50.874;4.394;2023-04-25T06:58:09;10.10;1.00
23597;DHT22;40226;50.874;4.394;2023-04-25T07:00:35;10.50;1.00
23597;DHT22;40226;50.874;4.394;2023-04-25T07:03:01;10.20;1.00
23597;DHT22;40226;50.874;4.394;2023-04-25T07:05:27;10.40;1.00
23597;DHT22;40226;50.874;4.394;2023-04-25T07:07:53;10.50;1.00
23597;DHT22;40226;50.874;4.394;2023-04-25T07:10:18;10.60;1.00
23597;DHT22;40226;50.874;4.394;2023-04-25T07:12:44;10.50;1.00
23597;DHT22;40226;50.874;4.394;2023-04-25T07:15:10;10.60;1.00
23597;DHT22;40226;50.874;4.394;2023-04-25T07:17:37;10.60;1.00
23597;DHT22;40226;50.874;4.394;2023-04-25T07:20:03;10.50;1.00
23597;DHT22;40226;50.874;4.394;2023-04-25T07:22:29;10.50;1.00
23597;DHT22;40226;50.874;4.394;2023-04-25T07:24:56;10.50;1.00
23597;DHT22;40226;50.874;4.394;2023-04-25T07:27:21;10.60;1.00
23597;DHT22;40226;50.874;4.394;2023-04-25T07:29:47;10.70;1.00
23597;DHT22;40226;50.874;4.394;2023-04-25T07:32:12;10.60;1.00
23597;DHT22;40226;50.874;4.394;2023-04-25T07:34:39;10.20;1.00
23597;DHT22;40226;50.874;4.394;2023-04-25T07:37:05;10.40;1.00
23597;DHT22;40226;50.874;4.394;2023-04-25T07:39:31;10.50;1.00
23597;DHT22;40226;50.874;4.394;2023-04-25T07:41:56;10.70;1.00
23597;DHT22;40226;50.874;4.394;2023-04-25T07:44:25;10.60;1.00
23597;DHT22;40226;50.874;4.394;2023-04-25T07:46:51;10.50;1.00
23597;DHT22;40226;50.874;4.394;2023-04-25T07:49:16;10.60;1.00
23597;DHT22;40226;50.874;4.394;2023-04-25T07:51:42;10.80;1.00
23597;DHT22;40226;50.874;4.394;2023-04-25T07:54:13;11.00;1.00
23597;DHT22;40226;50.874;4.394;2023-04-25T07:56:39;11.00;1.00
23597;DHT22;40226;50.874;4.394;2023-04-25T07:59:04;11.10;1.00
23597;DHT22;40226;50.874;4.394;2023-04-25T08:01:30;11.50;1.00
23597;DHT22;40226;50.874;4.394;2023-04-25T08:03:56;11.60;99.90
23597;DHT22;40226;50.874;4.394;2023-04-25T08:06:21;11.50;99.90
23597;DHT22;40226;50.874;4.394;2023-04-25T08:08:47;11.70;99.90
23597;DHT22;40226;50.874;4.394;2023-04-25T08:11:13;11.60;99.90
23597;DHT22;40226;50.874;4.394;2023-04-25T08:13:38;11.60;99.90
23597;DHT22;40226;50.874;4.394;2023-04-25T08:16:04;11.60;99.90
23597;DHT22;40226;50.874;4.394;2023-04-25T08:18:30;11.40;99.90
23597;DHT22;40226;50.874;4.394;2023-04-25T08:20:56;11.70;99.90
23597;DHT22;40226;50.874;4.394;2023-04-25T08:23:22;11.60;99.90
23597;DHT22;40226;50.874;4.394;2023-04-25T08:25:47;11.20;99.90
23597;DHT22;40226;50.874;4.394;2023-04-25T08:28:14;10.90;99.90
23597;DHT22;40226;50.874;4.394;2023-04-25T08:30:40;11.00;99.90
23597;DHT22;40226;50.874;4.394;2023-04-25T08:33:06;11.30;99.90
23597;DHT22;40226;50.874;4.394;2023-04-25T08:35:32;11.40;99.90
23597;DHT22;40226;50.874;4.394;2023-04-25T08:37:58;11.30;99.90
23597;DHT22;40226;50.874;4.394;2023-04-25T08:40:27;11.20;99.90
23597;DHT22;40226;50.874;4.394;2023-04-25T08:42:56;11.50;99.90
23597;DHT22;40226;50.874;4.394;2023-04-25T08:45:22;11.60;99.90
23597;DHT22;40226;50.874;4.394;2023-04-25T08:47:48;11.50;99.90
23597;DHT22;40226;50.874;4.394;2023-04-25T08:50:17;11.50;1.00
23597;DHT22;40226;50.874;4.394;2023-04-25T08:52:46;11.70;1.00
23597;DHT22;40226;50.874;4.394;2023-04-25T08:55:13;11.70;1.00
23597;DHT22;40226;50.874;4.394;2023-04-25T08:57:41;11.70;1.00
23597;DHT22;40226;50.874;4.394;2023-04-25T09:00:09;11.90;1.00
23597;DHT22;40226;50.874;4.394;2023-04-25T09:02:35;11.90;1.00
23597;DHT22;40226;50.874;4.394;2023-04-25T09:05:02;12.00;99.90
23597;DHT22;40226;50.874;4.394;2023-04-25T09:07:29;12.20;1.00
23597;DHT22;40226;50.874;4.394;2023-04-25T09:09:55;12.40;20.90
23597;DHT22;40226;50.874;4.394;2023-04-25T09:12:21;12.40;1.00
23597;DHT22;40226;50.874;4.394;2023-04-25T09:15:14;12.60;99.90
23597;DHT22;40226;50.874;4.394;2023-04-25T09:17:41;12.70;1.00
23597;DHT22;40226;50.874;4.394;2023-04-25T09:20:11;12.60;1.00
23597;DHT22;40226;50.874;4.394;2023-04-25T09:22:38;12.30;99.90
23597;DHT22;40226;50.874;4.394;2023-04-25T09:25:13;12.20;99.90
23597;DHT22;40226;50.874;4.394;2023-04-25T09:27:53;11.90;1.00
23597;DHT22;40226;50.874;4.394;2023-04-25T09:30:29;11.80;99.90
23597;DHT22;40226;50.874;4.394;2023-04-25T09:33:14;11.70;99.90
23597;DHT22;40226;50.874;4.394;2023-04-25T09:35:43;11.60;99.90
23597;DHT22;40226;50.874;4.394;2023-04-25T09:38:12;11.60;1.00
23597;DHT22;40226;50.874;4.394;2023-04-25T09:40:45;11.60;1.00
23597;DHT22;40226;50.874;4.394;2023-04-25T09:43:20;11.80;1.00
23597;DHT22;40226;50.874;4.394;2023-04-25T09:45:46;12.00;1.00
23597;DHT22;40226;50.874;4.394;2023-04-25T09:48:20;12.10;99.90
23597;DHT22;40226;50.874;4.394;2023-04-25T09:53:40;12.20;99.90
23597;DHT22;40226;50.874;4.394;2023-04-25T09:56:08;12.10;99.90
23597;DHT22;40226;50.874;4.394;2023-04-25T09:58:35;12.10;1.00
23597;DHT22;40226;50.874;4.394;2023-04-25T10:01:04;11.90;99.90
23597;DHT22;40226;50.874;4.394;2023-04-25T10:03:32;12.20;99.90
23597;DHT22;40226;50.874;4.394;2023-04-25T10:05:59;12.50;1.00
23597;DHT22;40226;50.874;4.394;2023-04-25T10:08:31;12.50;1.00
23597;DHT22;40226;50.874;4.394;2023-04-25T10:11:00;12.80;99.90
23597;DHT22;40226;50.874;4.394;2023-04-25T10:13:28;12.70;99.90
23597;DHT22;40226;50.874;4.394;2023-04-25T10:15:54;12.70;1.00
23597;DHT22;40226;50.874;4.394;2023-04-25T10:18:20;12.70;1.00
23597;DHT22;40226;50.874;4.394;2023-04-25T10:20:46;12.80;1.00
23597;DHT22;40226;50.874;4.394;2023-04-25T10:23:13;13.00;37.40
23597;DHT22;40226;50.874;4.394;2023-04-25T10:25:40;12.80;99.90
23597;DHT22;40226;50.874;4.394;2023-04-25T10:28:06;12.60;99.90
23597;DHT22;40226;50.874;4.394;2023-04-25T10:30:32;13.00;99.90
23597;DHT22;40226;50.874;4.394;2023-04-25T10:32:59;13.40;1.00
23597;DHT22;40226;50.874;4.394;2023-04-25T10:35:28;13.60;99.90
23597;DHT22;40226;50.874;4.394;2023-04-25T10:38:11;13.90;99.90
23597;DHT22;40226;50.874;4.394;2023-04-25T10:40:39;13.90;99.90
23597;DHT22;40226;50.874;4.394;2023-04-25T10:46:12;14.00;1.00
23597;DHT22;40226;50.874;4.394;2023-04-25T10:48:50;14.10;46.00
23597;DHT22;40226;50.874;4.394;2023-04-25T10:53:45;14.20;1.00
23597;DHT22;40226;50.874;4.394;2023-04-25T10:56:20;14.30;1.00
23597;DHT22;40226;50.874;4.394;2023-04-25T10:58:47;14.30;1.00
23597;DHT22;40226;50.874;4.394;2023-04-25T11:01:21;14.20;1.00
23597;DHT22;40226;50.874;4.394;2023-04-25T11:03:46;14.20;1.00
23597;DHT22;40226;50.874;4.394;2023-04-25T11:09:16;13.20;99.90
23597;DHT22;40226;50.874;4.394;2023-04-25T11:11:42;12.80;99.90
23597;DHT22;40226;50.874;4.394;2023-04-25T11:14:08;12.90;99.90
23597;DHT22;40226;50.874;4.394;2023-04-25T11:16:33;13.00;1.00
23597;DHT22;40226;50.874;4.394;2023-04-25T11:18:59;12.90;1.00
23597;DHT22;40226;50.874;4.394;2023-04-25T11:21:28;13.20;1.00
23597;DHT22;40226;50.874;4.394;2023-04-25T11:23:56;13.40;1.00
23597;DHT22;40226;50.874;4.394;2023-04-25T11:26:22;13.50;99.90
23597;DHT22;40226;50.874;4.394;2023-04-25T11:28:49;13.50;1.00
23597;DHT22;40226;50.874;4.394;2023-04-25T11:31:14;13.50;1.00
23597;DHT22;40226;50.874;4.394;2023-04-25T11:33:40;13.90;1.00
23597;DHT22;40226;50.874;4.394;2023-04-25T11:36:06;13.80;1.00
23597;DHT22;40226;50.874;4.394;2023-04-25T11:38:32;13.90;99.90
23597;DHT22;40226;50.874;4.394;2023-04-25T11:40:58;14.00;99.90
23597;DHT22;40226;50.874;4.394;2023-04-25T11:43:25;14.00;1.00
23597;DHT22;40226;50.874;4.394;2023-04-25T11:45:51;14.30;1.00
23597;DHT22;40226;50.874;4.394;2023-04-25T11:48:18;15.10;99.90
23597;DHT22;40226;50.874;4.394;2023-04-25T11:50:44;16.30;1.00
23597;DHT22;40226;50.874;4.394;2023-04-25T11:53:10;16.40;1.00
23597;DHT22;40226;50.874;4.394;2023-04-25T11:55:36;16.50;1.00
23597;DHT22;40226;50.874;4.394;2023-04-25T11:58:03;16.10;99.90
23597;DHT22;40226;50.874;4.394;2023-04-25T12:00:29;15.50;99.90
23597;DHT22;40226;50.874;4.394;2023-04-25T12:02:56;16.00;99.90
23597;DHT22;40226;50.874;4.394;2023-04-25T12:05:27;16.50;99.90
23597;DHT22;40226;50.874;4.394;2023-04-25T12:07:54;16.50;99.90
23597;DHT22;40226;50.874;4.394;2023-04-25T12:10:20;16.70;99.90
23597;DHT22;40226;50.874;4.394;2023-04-25T12:12:47;16.80;99.90
23597;DHT22;40226;50.874;4.394;2023-04-25T12:15:22;16.30;99.90
23597;DHT22;40226;50.874;4.394;2023-04-25T12:17:50;15.90;99.90
23597;DHT22;40226;50.874;4.394;2023-04-25T12:20:26;15.40;71.90
23597;DHT22;40226;50.874;4.394;2023-04-25T12:22:52;14.50;43.30
23597;DHT22;40226;50.874;4.394;2023-04-25T12:33:26;15.40;98.80
23597;DHT22;40226;50.874;4.394;2023-04-25T12:35:53;16.50;1.00
23597;DHT22;40226;50.874;4.394;2023-04-25T12:38:27;17.30;1.00
23597;DHT22;40226;50.874;4.394;2023-04-25T12:40:54;18.10;1.00
23597;DHT22;40226;50.874;4.394;2023-04-25T12:43:20;18.90;1.00
23597;DHT22;40226;50.874;4.394;2023-04-25T12:45:54;19.30;1.00
23597;DHT22;40226;50.874;4.394;2023-04-25T12:48:20;20.30;1.00
23597;DHT22;40226;50.874;4.394;2023-04-25T12:50:47;20.60;1.00
23597;DHT22;40226;50.874;4.394;2023-04-25T12:53:17;18.90;1.00
23597;DHT22;40226;50.874;4.394;2023-04-25T12:55:44;17.90;1.00
23597;DHT22;40226;50.874;4.394;2023-04-25T12:58:14;17.10;1.00
23597;DHT22;40226;50.874;4.394;2023-04-25T13:00:40;16.40;1.00
23597;DHT22;40226;50.874;4.394;2023-04-25T13:03:06;15.70;1.00
23597;DHT22;40226;50.874;4.394;2023-04-25T13:05:32;15.10;1.00
23597;DHT22;40226;50.874;4.394;2023-04-25T13:07:57;14.80;1.00
23597;DHT22;40226;50.874;4.394;2023-04-25T13:10:23;14.20;1.00
23597;DHT22;40226;50.874;4.394;2023-04-25T13:12:48;14.10;1.00
23597;DHT22;40226;50.874;4.394;2023-04-25T13:15:14;14.30;1.00
23597;DHT22;40226;50.874;4.394;2023-04-25T13:17:41;14.70;1.00
23597;DHT22;40226;50.874;4.394;2023-04-25T13:20:07;14.80;1.00
23597;DHT22;40226;50.874;4.394;2023-04-25T13:22:38;16.20;1.00
23597;DHT22;40226;50.874;4.394;2023-04-25T13:25:06;17.30;1.00
23597;DHT22;40226;50.874;4.394;2023-04-25T13:27:32;17.20;1.00
23597;DHT22;40226;50.874;4.394;2023-04-25T13:30:00;17.60;1.00
23597;DHT22;40226;50.874;4.394;2023-04-25T13:32:26;18.60;1.00
23597;DHT22;40226;50.874;4.394;2023-04-25T13:34:52;19.30;99.90
23597;DHT22;40226;50.874;4.394;2023-04-25T13:37:18;18.70;99.90
23597;DHT22;40226;50.874;4.394;2023-04-25T13:39:44;18.10;99.90
23597;DHT22;40226;50.874;4.394;2023-04-25T13:42:09;17.40;99.90
23597;DHT22;40226;50.874;4.394;2023-04-25T13:44:36;16.80;99.90
23597;DHT22;40226;50.874;4.394;2023-04-25T13:47:02;18.00;99.90
23597;DHT22;40226;50.874;4.394;2023-04-25T13:49:27;19.80;99.90
23597;DHT22;40226;50.874;4.394;2023-04-25T13:51:53;20.70;99.90
23597;DHT22;40226;50.874;4.394;2023-04-25T13:54:18;19.70;99.90
23597;DHT22;40226;50.874;4.394;2023-04-25T13:56:44;18.70;99.90
23597;DHT22;40226;50.874;4.394;2023-04-25T13:59:11;19.10;99.90
23597;DHT22;40226;50.874;4.394;2023-04-25T14:01:36;20.20;99.90
23597;DHT22;40226;50.874;4.394;2023-04-25T14:04:02;20.60;99.90
23597;DHT22;40226;50.874;4.394;2023-04-25T14:06:32;20.50;99.90
23597;DHT22;40226;50.874;4.394;2023-04-25T14:08:58;19.60;99.90
23597;DHT22;40226;50.874;4.394;2023-04-25T14:11:26;19.00;99.90
23597;DHT22;40226;50.874;4.394;2023-04-25T14:13:52;19.10;99.90
23597;DHT22;40226;50.874;4.394;2023-04-25T14:16:18;18.90;99.90
23597;DHT22;40226;50.874;4.394;2023-04-25T14:18:43;19.10;99.90
23597;DHT22;40226;50.874;4.394;2023-04-25T14:21:09;18.70;99.90
23597;DHT22;40226;50.874;4.394;2023-04-25T14:23:35;19.20;99.90
23597;DHT22;40226;50.874;4.394;2023-04-25T14:26:01;20.50;99.90
23597;DHT22;40226;50.874;4.394;2023-04-25T14:28:26;21.80;99.90
23597;DHT22;40226;50.874;4.394;2023-04-25T14:30:52;22.30;99.90
23597;DHT22;40226;50.874;4.394;2023-04-25T14:33:18;21.90;99.90
23597;DHT22;40226;50.874;4.394;2023-04-25T14:35:43;23.30;99.90
23597;DHT22;40226;50.874;4.394;2023-04-25T14:38:09;22.70;99.90
23597;DHT22;40226;50.874;4.394;2023-04-25T14:40:35;23.20;99.90
23597;DHT22;40226;50.874;4.394;2023-04-25T14:43:01;23.20;99.90
23597;DHT22;40226;50.874;4.394;2023-04-25T14:45:26;22.60;99.90
23597;DHT22;40226;50.874;4.394;2023-04-25T14:47:52;20.30;99.90
23597;DHT22;40226;50.874;4.394;2023-04-25T14:50:17;19.20;99.90
23597;DHT22;40226;50.874;4.394;2023-04-25T14:52:43;18.40;99.90
23597;DHT22;40226;50.874;4.394;2023-04-25T14:55:10;17.70;99.90
23597;DHT22;40226;50.874;4.394;2023-04-25T14:57:36;18.80;99.90
23597;DHT22;40226;50.874;4.394;2023-04-25T15:00:03;20.40;99.90
23597;DHT22;40226;50.874;4.394;2023-04-25T15:02:32;21.30;99.90
23597;DHT22;40226;50.874;4.394;2023-04-25T15:04:58;21.30;99.90
23597;DHT22;40226;50.874;4.394;2023-04-25T15:07:23;20.90;99.90
23597;DHT22;40226;50.874;4.394;2023-04-25T15:09:50;21.50;99.90
23597;DHT22;40226;50.874;4.394;2023-04-25T15:12:15;20.90;99.90
23597;DHT22;40226;50.874;4.394;2023-04-25T15:14:41;22.30;99.90
23597;DHT22;40226;50.874;4.394;2023-04-25T15:17:06;21.80;99.90
23597;DHT22;40226;50.874;4.394;2023-04-25T15:19:32;20.70;99.90
23597;DHT22;40226;50.874;4.394;2023-04-25T15:21:58;20.80;99.90
23597;DHT22;40226;50.874;4.394;2023-04-25T15:24:26;20.60;99.90
23597;DHT22;40226;50.874;4.394;2023-04-25T15:26:52;20.70;99.90
23597;DHT22;40226;50.874;4.394;2023-04-25T15:29:18;21.30;99.90
23597;DHT22;40226;50.874;4.394;2023-04-25T15:31:43;21.80;99.90
23597;DHT22;40226;50.874;4.394;2023-04-25T15:34:09;22.70;99.90
23597;DHT22;40226;50.874;4.394;2023-04-25T15:36:34;23.20;99.90
23597;DHT22;40226;50.874;4.394;2023-04-25T15:39:01;24.30;99.90
23597;DHT22;40226;50.874;4.394;2023-04-25T15:41:27;24.50;99.90
23597;DHT22;40226;50.874;4.394;2023-04-25T15:43:53;23.20;99.90
23597;DHT22;40226;50.874;4.394;2023-04-25T15:46:19;22.70;99.90
23597;DHT22;40226;50.874;4.394;2023-04-25T15:48:46;22.30;99.90
23597;DHT22;40226;50.874;4.394;2023-04-25T15:51:12;22.60;99.90
23597;DHT22;40226;50.874;4.394;2023-04-25T15:53:37;22.60;99.90
23597;DHT22;40226;50.874;4.394;2023-04-25T15:56:03;21.90;99.90